Flight Track Log - Related Links

Times and Time Zones

All times are in EDT time to prevent confusion due to time zone crossing. See the MTN8105 flight status page for this flight to view local times or setup timezone preferences in your user account.

Time Position Orientation Groundspeed Altitude Reporting Facility
EDT Latitude Longitude Course Direction KTS MPH feet Rate Location/Type
Tue 11:37:15 AM 18.4333 -65.9500 90° East 110 127 1,100  Level San Juan Center
Tue 11:38:15 AM 18.4333 -65.9167 90° East 100 115 1,700 550 Climbing San Juan Center
Tue 11:39:15 AM 18.4500 -65.8833 62° Northeast 100 115 2,200 500 Climbing San Juan Center
Tue 11:40:15 AM 18.4500 -65.8500 90° East 110 127 2,700 496 Climbing San Juan Center
Tue 11:41:16 AM 18.4500 -65.8167 90° East 110 127 3,200 545 Climbing San Juan Center
Tue 11:42:16 AM 18.4500 -65.7833 90° East 120 138 3,800 550 Climbing San Juan Center
Tue 11:43:16 AM 18.4500 -65.7500 90° East 120 138 4,300 446 Climbing San Juan Center
Tue 11:44:17 AM 18.4500 -65.7167 90° East 100 115 4,700 446 Climbing San Juan Center
Tue 11:45:17 AM 18.4667 -65.6833 62° Northeast 120 138 5,200 450 Climbing San Juan Center
Tue 11:46:17 AM 18.4333 -65.6500 137° Southeast 120 138 5,600 397 Climbing San Juan Center
Tue 11:47:18 AM 18.4167 -65.6333 137° Southeast 110 127 6,000 347 Climbing San Juan Center
Tue 11:48:18 AM 18.4000 -65.6000 118° Southeast 110 127 6,300 400 Climbing San Juan Center
Tue 11:49:18 AM 18.3833 -65.5667 118° Southeast 130 150 6,800 397 Climbing San Juan Center
Tue 11:50:19 AM 18.3500 -65.5500 155° Southeast 110 127 7,100 298 Climbing San Juan Center
Tue 11:51:19 AM 18.3333 -65.5167 118° Southeast 120 138 7,400 300 Climbing San Juan Center
Tue 11:52:19 AM 18.3167 -65.4833 118° Southeast 130 150 7,700 347 Climbing San Juan Center
Tue 11:53:20 AM 18.3000 -65.4667 136° Southeast 110 127 8,100 347 Climbing San Juan Center
Tue 11:54:20 AM 18.2833 -65.4333 118° Southeast 130 150 8,400 350 Climbing San Juan Center
Tue 11:55:20 AM 18.2500 -65.4000 136° Southeast 120 138 8,800 446 Climbing San Juan Center
Tue 11:56:21 AM 18.2333 -65.3833 136° Southeast 120 138 9,300 446 Climbing San Juan Center
Tue 11:57:21 AM 18.2167 -65.3500 118° Southeast 130 150 9,700 400 Climbing San Juan Center
Tue 11:58:21 AM 18.1833 -65.3167 136° Southeast 130 150 10,100 397 Climbing San Juan Center
Tue 11:59:22 AM 18.1667 -65.3000 136° Southeast 130 150 10,500 446 Climbing San Juan Center
Tue 12:00:22 PM 18.1500 -65.2667 118° Southeast 130 150 11,000 250 Climbing San Juan Center
Tue 12:01:22 PM 18.1167 -65.2333 136° Southeast 140 161 11,000 200 Level San Juan Center
Tue 12:02:22 PM 18.0833 -65.2167 155° Southeast 140 161 11,400 446 Climbing San Juan Center
Tue 12:03:23 PM 18.0667 -65.1833 118° Southeast 130 150 11,900 496 Climbing San Juan Center
Tue 12:04:23 PM 18.0500 -65.1500 118° Southeast 130 150 12,400 550 Climbing San Juan Center
Tue 12:05:23 PM 18.0333 -65.1167 118° Southeast 140 161 13,000 298 Climbing San Juan Center
Tue 12:06:24 PM 18.0167 -65.0833 118° Southeast 150 173 13,000  Level San Juan Center
Tue 12:07:24 PM 18.0000 -65.0500 118° Southeast 140 161 13,000  Level San Juan Center
Tue 12:08:24 PM 17.9833 -65.0167 118° Southeast 150 173 13,000  Level San Juan Center
Tue 12:09:25 PM 17.9833 -64.9667 90° East 140 161 13,000  Level San Juan Center
Tue 12:10:25 PM 17.9667 -64.9333 118° Southeast 140 161 13,000  Level San Juan Center
Tue 12:11:25 PM 17.9500 -64.9000 118° Southeast 130 150 13,000  Level San Juan Center
Tue 12:12:26 PM 17.9333 -64.8500 109° East 140 161 13,000  Level San Juan Center
Tue 12:13:25 PM 17.9167 -64.8167 118° Southeast 130 150 13,000  Level San Juan Center
Tue 12:14:26 PM 17.9000 -64.7833 118° Southeast 130 150 13,000  Level San Juan Center
Tue 12:15:26 PM 17.8833 -64.7333 109° East 140 161 13,000  Level San Juan Center
Tue 12:16:27 PM 17.8833 -64.7000 90° East 140 161 13,000  Level San Juan Center
Tue 12:17:27 PM 17.8667 -64.6667 118° Southeast 130 150 13,000  Level San Juan Center
Tue 12:18:27 PM 17.8500 -64.6167 109° East 130 150 13,000  Level San Juan Center
Tue 12:19:28 PM 17.8333 -64.5833 118° Southeast 150 173 13,000  Level San Juan Center
Tue 12:20:28 PM 17.8167 -64.5500 118° Southeast 160 184 13,000  Level San Juan Center
Tue 12:21:28 PM 17.8000 -64.5167 118° Southeast 140 161 13,000  Level San Juan Center
Tue 12:22:29 PM 17.8000 -64.4667 90° East 150 173 13,000  Level San Juan Center
Tue 12:23:29 PM 17.7833 -64.4333 118° Southeast 130 150 13,000  Level San Juan Center
Tue 12:24:29 PM 17.7667 -64.3833 109° East 150 173 13,000  Level San Juan Center
Tue 12:25:29 PM 17.7500 -64.3500 118° Southeast 130 150 13,000  Level San Juan Center
Tue 12:26:29 PM 17.7333 -64.3167 118° Southeast 130 150 13,000  Level San Juan Center
Tue 12:27:30 PM 17.7167 -64.2833 118° Southeast 150 173 13,000  Level San Juan Center
Tue 12:28:30 PM 17.7000 -64.2333 109° East 150 173 13,000  Level San Juan Center
Tue 12:29:30 PM 17.7000 -64.2000 90° East 150 173 13,000  Level San Juan Center
Tue 12:30:31 PM 17.6833 -64.1667 118° Southeast 150 173 13,000  Level San Juan Center
Tue 12:31:31 PM 17.6667 -64.1167 109° East 140 161 13,000  Level San Juan Center
Tue 12:32:31 PM 17.6500 -64.0833 118° Southeast 130 150 13,000  Level San Juan Center
Tue 12:33:32 PM 17.6333 -64.0500 118° Southeast 150 173 13,000  Level San Juan Center
Tue 12:34:32 PM 17.6167 -64.0167 118° Southeast 140 161 13,000  Level San Juan Center
Tue 12:35:32 PM 17.6000 -63.9667 109° East 160 184 13,000  Level San Juan Center
Tue 12:36:33 PM 17.6000 -63.9333 90° East 140 161 13,000  Level San Juan Center
Tue 12:37:33 PM 17.5833 -63.8833 109° East 140 161 13,000  Level San Juan Center
Tue 12:38:33 PM 17.5667 -63.8500 118° Southeast 140 161 13,000  Level San Juan Center
Tue 12:39:34 PM 17.5500 -63.8167 118° Southeast 150 173 13,000  Level San Juan Center
Tue 12:40:34 PM 17.5333 -63.7833 118° Southeast 150 173 13,000  Level San Juan Center
Tue 12:41:34 PM 17.5167 -63.7333 109° East 150 173 13,000  Level San Juan Center
Tue 12:42:35 PM 17.5000 -63.7000 118° Southeast 160 184 13,000  Level San Juan Center
Tue 12:43:35 PM 17.5000 -63.6500 90° East 150 173 13,000  Level San Juan Center
Tue 12:44:35 PM 17.4833 -63.6167 118° Southeast 140 161 13,000  Level San Juan Center
Tue 12:45:36 PM 17.4667 -63.5833 118° Southeast 140 161 13,000  Level San Juan Center
Tue 12:46:36 PM 17.4667 -63.5333 90° East 140 161 13,000  Level San Juan Center
Tue 12:47:36 PM 17.4500 -63.5000 118° Southeast 140 161 13,000  Level San Juan Center
Tue 12:48:36 PM 17.4500 -63.4500 90° East 160 184 13,000 -50 Level San Juan Center
Tue 12:49:37 PM 17.4333 -63.4167 118° Southeast 140 161 12,900 -50 Descending San Juan Center
Tue 12:50:37 PM 17.4333 -63.3833 90° East 110 127 12,900  Level San Juan Center
Tue 12:51:37 PM 17.4167 -63.3333 109° East 150 173 12,900  Level San Juan Center
Tue 12:52:38 PM 17.4167 -63.3000 90° East 150 173 12,900  Level San Juan Center
Tue 12:53:38 PM 17.4000 -63.2500 109° East 150 173 12,900  Level San Juan Center
Tue 12:54:38 PM 17.3833 -63.2167 118° Southeast 130 150 12,900  Level San Juan Center
Tue 12:55:39 PM 17.3833 -63.1667 90° East 150 173 12,900  Level San Juan Center
Tue 12:56:39 PM 17.3833 -63.1333 90° East 140 161 12,900  Level San Juan Center
Tue 12:57:39 PM 17.3833 -63.1000 90° East 190 219 12,900  Level San Juan Center
Tue 12:58:39 PM 17.3500 -63.0500 125° Southeast 150 173 12,900  Level San Juan Center
Tue 12:59:40 PM 17.3500 -63.0167 90° East 140 161 12,900 50 Level San Juan Center
Tue 01:00:40 PM 17.3333 -62.9667 109° East 130 150 13,000 100 Climbing San Juan Center
Tue 01:02:00 PM 17.3219 -62.9133 103° East  Level FlightAware Approximate
Tue 01:09:00 PM 17.2730 -62.6317 102° East  Level FlightAware Approximate
Tue 01:10:00 PM 17.2650 -62.5916 102° East  Level FlightAware Approximate
Tue 01:11:00 PM 17.2570 -62.5514 102° East  Level FlightAware Approximate
Tue 01:12:00 PM 17.2489 -62.5113 102° East  Level FlightAware Approximate
Tue 01:13:00 PM 17.2409 -62.4712 102° East  Level FlightAware Approximate
Tue 01:14:00 PM 17.2330 -62.4310 98° East  Level FlightAware Approximate
Tue 01:15:00 PM 17.2272 -62.3905 98° East  Level FlightAware Approximate
Tue 01:16:00 PM 17.2215 -62.3500 98° East  Level FlightAware Approximate
Tue 01:17:00 PM 17.2157 -62.3094 98° East  Level FlightAware Approximate
Tue 01:18:00 PM 17.2099 -62.2689 99° East  Level FlightAware Approximate
Tue 01:19:00 PM 17.2041 -62.2284 99° East  Level FlightAware Approximate
Tue 01:20:00 PM 17.1976 -62.1879 102° East  Level FlightAware Approximate
Tue 01:21:00 PM 17.1896 -62.1478 102° East  Level FlightAware Approximate
Tue 01:22:00 PM 17.1815 -62.1077 102° East  Level FlightAware Approximate
Tue 01:23:00 PM 17.1735 -62.0676 102° East  Level FlightAware Approximate
Tue 01:24:00 PM 17.1655 -62.0275 102° East  Level FlightAware Approximate
Tue 01:25:00 PM 17.1575 -61.9874 102° East  Level FlightAware Approximate
Tue 01:26:00 PM 17.1495 -61.9473 102° East  Level FlightAware Approximate
Tue 01:27:00 PM 17.1414 -61.9072 102° East  Level FlightAware Approximate
Tue 01:28:00 PM 17.1334 -61.8671 102° East  Level FlightAware Approximate
Tue 01:29:00 PM 17.1235 -61.8274 105° East  Level FlightAware Approximate
Tue 01:30:00 PM 17.1167 -61.7874 90° East  Level FlightAware Approximate
Tue 01:31:00 PM 17.1167 -61.7667 90° East  Level FlightAware Approximate
Tue 01:32:00 PM 17.1367 -61.7927 90° East  Level Estimated
Tue 01:33:00 PM 17.1367 -61.7927 90° East  Level Estimated
Tue 01:34:00 PM 17.1367 -61.7927 90° East  Level Estimated
Tue 01:35:00 PM 17.1367 -61.7927 90° East  Level Estimated
Tue 01:36:00 PM 17.1367 -61.7927 90° East  Level Estimated

Login

Don't have an account? Register now (free) for customized features, flight alerts, and more!